Time;durP1;ratioP1;P1;durP2;ratioP2;P2;SDS_P1;SDS_P2;PMS_P1;PMS_P2;Temp;Humidity;BMP_temperature;BMP_pressure;BME280_temperature;BME280_humidity;BME280_pressure;Samples;Min_cycle;Max_cycle;Signal;HPM_P1;HPM_P2
2023/05/28 00:00:51;;;;;;;1.25;1.25;;;;;;;18.71;100.00;100008.13;5016068;28;20203;-71
2023/05/28 00:03:20;;;;;;;1.25;1.25;;;;;;;18.53;100.00;99966.44;5051222;28;20260;-71
2023/05/28 00:05:47;;;;;;;1.50;1.40;;;;;;;18.71;100.00;99987.97;5051354;28;20204;-71
2023/05/28 00:08:14;;;;;;;1.58;1.48;;;;;;;18.87;100.00;100004.28;5051249;28;20206;-72
2023/05/28 00:10:42;;;;;;;1.25;1.25;;;;;;;18.73;100.00;99978.28;5050958;28;20304;-71
2023/05/28 00:13:08;;;;;;;1.65;1.55;;;;;;;18.93;100.00;100006.81;5050622;28;20231;-71
2023/05/28 00:15:37;;;;;;;1.58;1.48;;;;;;;18.96;100.00;99992.72;5050479;28;20288;-72
2023/05/28 00:18:04;;;;;;;1.30;1.30;;;;;;;18.83;100.00;100007.88;5050331;28;20662;-72
2023/05/28 00:20:31;;;;;;;1.40;1.30;;;;;;;18.77;100.00;99989.59;5050832;28;20592;-71
2023/05/28 00:22:58;;;;;;;1.17;1.17;;;;;;;18.57;100.00;99952.38;5050804;28;20697;-72
2023/05/28 00:25:25;;;;;;;1.30;1.30;;;;;;;18.86;100.00;99989.44;5050930;28;20574;-72
2023/05/28 00:27:51;;;;;;;1.30;1.30;;;;;;;18.96;100.00;100003.25;5050735;28;20222;-72
2023/05/28 00:30:18;;;;;;;1.60;1.50;;;;;;;18.94;100.00;99992.75;5051053;28;20203;-72
2023/05/28 00:32:46;;;;;;;1.13;1.13;;;;;;;19.10;100.00;99994.19;5049108;28;20191;-72
2023/05/28 00:35:13;;;;;;;1.40;1.40;;;;;;;18.90;100.00;99964.84;5050771;28;20768;-72
2023/05/28 00:37:40;;;;;;;1.48;1.42;;;;;;;19.17;100.00;100003.66;5015508;28;20690;-72
2023/05/28 00:40:08;;;;;;;1.30;1.30;;;;;;;19.19;100.00;99993.13;5015134;28;20735;-72
2023/05/28 00:42:35;;;;;;;1.40;1.40;;;;;;;19.20;100.00;99993.09;5050201;28;20622;-72
2023/05/28 00:45:02;;;;;;;1.10;1.10;;;;;;;19.24;100.00;99994.75;5016013;28;20238;-72
2023/05/28 00:47:29;;;;;;;1.30;1.30;;;;;;;19.24;100.00;99997.38;5055091;28;20226;-72
2023/05/28 00:50:00;;;;;;;1.23;1.23;;;;;;;19.06;100.00;99963.59;5055283;28;20199;-72
2023/05/28 00:52:27;;;;;;;1.30;1.30;;;;;;;19.25;100.00;99983.34;5054587;28;20674;-72
2023/05/28 00:54:55;;;;;;;1.30;1.30;;;;;;;18.93;100.00;99921.84;5054713;28;20218;-72
2023/05/28 00:57:23;;;;;;;1.30;1.30;;;;;;;19.29;100.00;99977.13;5054666;28;20662;-72
2023/05/28 00:59:51;;;;;;;1.30;1.30;;;;;;;19.24;100.00;99971.09;5054381;28;20199;-72
2023/05/28 01:02:18;;;;;;;1.38;1.30;;;;;;;19.13;100.00;99978.34;5054715;28;20707;-72
2023/05/28 01:04:44;;;;;;;1.60;1.50;;;;;;;19.13;100.00;99980.09;5054697;28;20218;-72
2023/05/28 01:07:13;;;;;;;1.30;1.30;;;;;;;19.16;100.00;99974.78;5054440;28;20713;-72
2023/05/28 01:09:40;;;;;;;1.25;1.25;;;;;;;19.08;100.00;99961.81;5054282;28;20689;-72
2023/05/28 01:12:09;;;;;;;1.50;1.40;;;;;;;19.08;100.00;99946.06;5054751;28;20329;-72
2023/05/28 01:14:38;;;;;;;1.20;1.20;;;;;;;18.95;100.00;99941.94;5054163;28;20588;-72
2023/05/28 01:17:05;;;;;;;1.38;1.30;;;;;;;18.98;100.00;99948.91;5054359;28;20317;-72
2023/05/28 01:19:32;;;;;;;1.20;1.20;;;;;;;19.08;100.00;99950.44;5054323;28;20195;-72
2023/05/28 01:22:04;;;;;;;1.20;1.20;;;;;;;19.20;100.00;99966.78;5051613;28;20664;-72
2023/05/28 01:24:33;;;;;;;1.20;1.20;;;;;;;19.10;100.00;99949.50;5053672;28;20207;-72
2023/05/28 01:27:00;;;;;;;1.33;1.30;;;;;;;18.99;100.00;99959.38;5054077;28;20211;-72
2023/05/28 01:29:27;;;;;;;1.30;1.30;;;;;;;18.78;100.00;99933.53;5053547;28;20666;-72
2023/05/28 01:31:54;;;;;;;1.38;1.30;;;;;;;18.96;100.00;99951.56;5053870;28;20261;-72
2023/05/28 01:34:22;;;;;;;1.30;1.30;;;;;;;19.01;100.00;99948.84;5035423;28;20214;-72
2023/05/28 01:36:58;;;;;;;1.30;1.30;;;;;;;19.03;100.00;99953.16;5054071;28;20231;-72
2023/05/28 01:39:27;;;;;;;1.30;1.30;;;;;;;19.03;100.00;99936.53;5053409;28;20239;-72
2023/05/28 01:41:59;;;;;;;1.30;1.30;;;;;;;19.17;100.00;99950.22;5053702;28;20199;-72
2023/05/28 01:44:27;;;;;;;1.50;1.40;;;;;;;19.12;100.00;99952.94;5053391;28;20245;-72
2023/05/28 01:46:54;;;;;;;1.60;1.50;;;;;;;18.91;100.00;99934.16;5053470;28;20199;-72
2023/05/28 01:49:24;;;;;;;1.13;1.13;;;;;;;18.85;100.00;99922.00;5053527;28;20670;-71
2023/05/28 01:51:51;;;;;;;1.45;1.40;;;;;;;19.03;100.00;99957.53;5047264;28;20203;-71
2023/05/28 01:54:17;;;;;;;1.40;1.40;;;;;;;18.98;100.00;99959.44;5053316;28;20199;-71
2023/05/28 01:56:45;;;;;;;1.52;1.42;;;;;;;18.88;100.00;99948.22;5053157;28;20230;-72
2023/05/28 01:59:13;;;;;;;1.30;1.30;;;;;;;18.90;100.00;99941.19;5053348;28;20253;-72
2023/05/28 02:01:40;;;;;;;1.60;1.50;;;;;;;18.89;100.00;99949.09;5051938;28;20554;-72
2023/05/28 02:04:07;;;;;;;1.55;1.45;;;;;;;18.85;100.00;99942.16;5034730;28;20200;-71
2023/05/28 02:06:35;;;;;;;1.60;1.50;;;;;;;18.78;100.00;99937.03;5053537;28;20203;-72
2023/05/28 02:09:02;;;;;;;1.63;1.52;;;;;;;18.74;100.00;99945.00;5053223;28;20208;-71
2023/05/28 02:11:29;;;;;;;1.70;1.60;;;;;;;18.58;100.00;99922.59;5053501;28;20196;-72
2023/05/28 02:13:56;;;;;;;1.27;1.27;;;;;;;18.90;100.00;99966.59;5018250;28;20207;-72
2023/05/28 02:16:24;;;;;;;1.50;1.40;;;;;;;18.96;100.00;99988.34;5053035;28;20223;-72
2023/05/28 02:18:52;;;;;;;1.50;1.40;;;;;;;18.89;100.00;99984.13;5052754;28;20207;-72
2023/05/28 02:21:20;;;;;;;1.55;1.45;;;;;;;18.80;100.00;99969.38;5053258;28;20227;-72
2023/05/28 02:23:48;;;;;;;1.25;1.25;;;;;;;18.72;100.00;99959.94;5052989;28;20195;-71
2023/05/28 02:26:15;;;;;;;1.55;1.45;;;;;;;18.59;100.00;99950.56;5018507;28;20210;-72
2023/05/28 02:28:43;;;;;;;1.42;1.33;;;;;;;18.36;100.00;99913.38;5052779;28;20200;-72
2023/05/28 02:31:10;;;;;;;1.15;1.15;;;;;;;18.87;100.00;99983.25;5052828;28;20223;-72
2023/05/28 02:33:38;;;;;;;1.30;1.30;;;;;;;18.72;100.00;99960.81;5052726;28;20261;-72
2023/05/28 02:36:07;;;;;;;1.58;1.48;;;;;;;18.83;100.00;99983.38;5052948;28;20637;-72
2023/05/28 02:38:34;;;;;;;1.60;1.50;;;;;;;18.86;100.00;99988.56;5018145;28;20747;-72
2023/05/28 02:41:01;;;;;;;1.30;1.30;;;;;;;18.90;100.00;99984.97;5052670;28;20199;-72
2023/05/28 02:43:28;;;;;;;1.17;1.17;;;;;;;18.63;100.00;99962.75;5052553;28;20650;-72
2023/05/28 02:45:55;;;;;;;1.20;1.20;;;;;;;18.54;100.00;99974.31;5052713;28;20202;-72
2023/05/28 02:48:21;;;;;;;1.30;1.25;;;;;;;18.52;100.00;99965.56;5052941;28;20199;-72
2023/05/28 02:50:50;;;;;;;1.65;1.55;;;;;;;18.64;100.00;99969.72;5052529;28;20554;-72
2023/05/28 02:53:20;;;;;;;1.58;1.48;;;;;;;18.47;100.00;99929.78;5052466;28;20207;-72
2023/05/28 02:55:47;;;;;;;1.27;1.27;;;;;;;18.51;100.00;99936.75;5052242;28;20253;-72
2023/05/28 02:58:14;;;;;;;1.48;1.38;;;;;;;18.81;100.00;99988.66;5052906;28;20195;-72
2023/05/28 03:00:41;;;;;;;1.20;1.20;;;;;;;18.78;100.00;99979.06;5052375;28;20223;-72
2023/05/28 03:03:08;;;;;;;1.58;1.48;;;;;;;18.89;100.00;99986.75;5052377;28;20196;-72
2023/05/28 03:05:35;;;;;;;1.25;1.25;;;;;;;18.81;100.00;99965.88;5051278;28;20674;-72
2023/05/28 03:08:04;;;;;;;1.33;1.33;;;;;;;18.90;100.00;99967.47;5051503;28;20191;-72
2023/05/28 03:10:31;;;;;;;1.48;1.40;;;;;;;18.80;100.00;99986.91;5051169;28;20290;-72
2023/05/28 03:12:58;;;;;;;1.60;1.50;;;;;;;18.39;100.00;99915.94;5016933;28;20287;-72
2023/05/28 03:15:26;;;;;;;1.40;1.30;;;;;;;18.65;100.00;99966.22;5016865;28;20195;-72
2023/05/28 03:17:53;;;;;;;1.50;1.40;;;;;;;18.78;100.00;99973.81;5052125;28;20754;-72
2023/05/28 03:20:20;;;;;;;1.20;1.20;;;;;;;18.93;100.00;99988.41;5052142;28;20207;-72
2023/05/28 03:22:48;;;;;;;1.27;1.27;;;;;;;19.11;100.00;99989.78;5051867;28;20264;-72
2023/05/28 03:25:16;;;;;;;2.35;2.25;;;;;;;19.05;100.00;99956.59;5051912;28;20607;-72
2023/05/28 03:27:43;;;;;;;1.10;1.10;;;;;;;19.08;100.00;99951.31;5051858;28;20649;-72
2023/05/28 03:30:11;;;;;;;1.73;1.63;;;;;;;19.49;100.00;99988.97;5051532;28;20649;-72
2023/05/28 03:32:37;;;;;;;1.30;1.30;;;;;;;19.52;100.00;99994.16;4984599;28;20210;-73
2023/05/28 03:35:05;;;;;;;1.30;1.30;;;;;;;18.97;100.00;99911.25;5052154;28;20226;-72
2023/05/28 03:37:31;;;;;;;1.30;1.30;;;;;;;19.42;100.00;99998.78;5016060;28;20243;-72
2023/05/28 03:39:58;;;;;;;1.50;1.40;;;;;;;19.43;100.00;100002.28;5051649;28;20619;-72
2023/05/28 03:42:26;;;;;;;1.20;1.20;;;;;;;19.42;100.00;99995.28;5051743;28;20207;-72
2023/05/28 03:44:53;;;;;;;1.10;1.10;;;;;;;19.35;100.00;99998.91;5051607;28;20222;-72
2023/05/28 03:47:20;;;;;;;1.10;1.10;;;;;;;19.37;100.00;99995.34;5051634;28;20199;-72
2023/05/28 03:49:47;;;;;;;1.30;1.30;;;;;;;19.40;100.00;99989.16;5051896;28;20207;-72
2023/05/28 03:52:13;;;;;;;1.30;1.30;;;;;;;19.29;100.00;99998.16;5051551;28;20215;-72
2023/05/28 03:54:40;;;;;;;1.20;1.20;;;;;;;19.31;100.00;99988.47;5051296;28;20257;-72
2023/05/28 03:57:07;;;;;;;1.08;1.08;;;;;;;19.28;100.00;100000.81;5051536;28;20281;-72
2023/05/28 03:59:35;;;;;;;1.13;1.13;;;;;;;19.21;100.00;99994.81;5051203;28;20207;-72
2023/05/28 04:02:02;;;;;;;1.25;1.25;;;;;;;18.87;100.00;99943.84;5051715;28;20276;-72
2023/05/28 04:04:28;;;;;;;1.38;1.38;;;;;;;19.30;100.00;100005.13;5051440;28;20278;-72
2023/05/28 04:06:55;;;;;;;1.20;1.20;;;;;;;19.12;100.00;99967.88;5050164;28;20207;-72
2023/05/28 04:09:22;;;;;;;1.30;1.30;;;;;;;19.21;100.00;99988.69;5050658;28;20260;-71
2023/05/28 04:11:49;;;;;;;1.50;1.40;;;;;;;19.37;100.00;99989.25;5051454;28;20204;-72
2023/05/28 04:14:16;;;;;;;1.33;1.33;;;;;;;19.35;100.00;99991.00;5051110;28;20203;-72
2023/05/28 04:16:44;;;;;;;1.20;1.20;;;;;;;19.35;100.00;100007.66;5050841;28;20219;-72
2023/05/28 04:19:11;;;;;;;1.30;1.30;;;;;;;19.40;100.00;100016.31;5050709;28;20202;-72
2023/05/28 04:21:38;;;;;;;1.20;1.20;;;;;;;19.43;100.00;100013.66;5050672;28;20196;-73
2023/05/28 04:24:05;;;;;;;1.20;1.20;;;;;;;19.46;100.00;100025.88;5050513;28;20219;-73
2023/05/28 04:26:32;;;;;;;1.40;1.30;;;;;;;19.23;100.00;100021.94;5050238;28;20202;-72
2023/05/28 04:28:59;;;;;;;1.35;1.33;;;;;;;19.33;100.00;100009.47;5048346;28;20214;-75
2023/05/28 04:31:27;;;;;;;1.50;1.40;;;;;;;19.46;100.00;99968.00;5056772;28;20211;-75
2023/05/28 04:33:55;;;;;;;1.00;1.00;;;;;;;19.76;100.00;100019.94;5023535;28;20874;-73
2023/05/28 04:36:29;;;;;;;1.10;1.10;;;;;;;19.70;100.00;100014.78;5059156;28;20380;-73
2023/05/28 04:38:56;;;;;;;1.10;1.10;;;;;;;19.73;100.00;100019.97;5058753;28;20739;-73
2023/05/28 04:41:25;;;;;;;1.27;1.27;;;;;;;19.60;100.00;100029.06;5060694;28;20226;-74
2023/05/28 04:43:51;;;;;;;1.50;1.40;;;;;;;19.50;100.00;100032.78;5055738;28;20273;-73
2023/05/28 04:46:18;;;;;;;1.13;1.13;;;;;;;19.65;100.00;100016.69;5059842;28;20202;-76
2023/05/28 04:48:45;;;;;;;1.20;1.20;;;;;;;19.47;100.00;100001.31;5057632;28;20208;-74
2023/05/28 04:51:13;;;;;;;1.10;1.10;;;;;;;19.66;100.00;100028.91;5061154;28;20256;-73
2023/05/28 04:53:40;;;;;;;1.52;1.52;;;;;;;19.51;100.00;100016.97;5059002;28;20207;-74
2023/05/28 04:56:07;;;;;;;1.40;1.30;;;;;;;19.46;100.00;100010.09;5058634;28;20218;-74
2023/05/28 04:58:34;;;;;;;1.10;1.10;;;;;;;19.51;100.00;100034.53;5057063;28;20195;-74
2023/05/28 05:01:01;;;;;;;1.20;1.20;;;;;;;19.58;100.00;100038.75;5038851;28;20202;-74
2023/05/28 05:03:31;;;;;;;1.45;1.40;;;;;;;19.59;100.00;100043.09;5059682;28;20297;-74
2023/05/28 05:05:58;;;;;;;1.23;1.23;;;;;;;19.43;100.00;100036.47;5056560;28;20196;-72
2023/05/28 05:08:27;;;;;;;1.08;1.08;;;;;;;19.43;100.00;100031.19;5014792;28;20658;-71
2023/05/28 05:10:53;;;;;;;1.30;1.30;;;;;;;19.12;100.00;99978.41;5050030;28;20207;-72
2023/05/28 05:13:20;;;;;;;1.30;1.30;;;;;;;19.59;100.00;100033.44;5050139;28;20206;-71
2023/05/28 05:15:47;;;;;;;1.30;1.30;;;;;;;19.37;100.00;100029.50;5049608;28;20562;-73
2023/05/28 05:18:14;;;;;;;1.50;1.40;;;;;;;19.24;100.00;100023.66;5049933;28;20227;-72
2023/05/28 05:20:41;;;;;;;1.20;1.20;;;;;;;19.38;100.00;100040.91;5050403;28;20588;-72
2023/05/28 05:23:08;;;;;;;1.35;1.33;;;;;;;19.44;100.00;100041.66;5014129;28;20679;-74
2023/05/28 05:25:36;;;;;;;1.20;1.20;;;;;;;19.53;100.00;100037.97;5033216;28;20642;-73
2023/05/28 05:28:02;;;;;;;1.60;1.50;;;;;;;19.57;100.00;100037.88;5042704;28;20200;-72
2023/05/28 05:30:29;;;;;;;1.48;1.38;;;;;;;19.54;100.00;100023.94;5049234;28;20748;-72
2023/05/28 05:32:56;;;;;;;1.60;1.50;;;;;;;19.77;100.00;100047.94;5050609;28;20227;-71
2023/05/28 05:35:23;;;;;;;1.80;1.70;;;;;;;19.99;100.00;100025.50;5052734;28;20594;-71
2023/05/28 05:37:50;;;;;;;1.60;1.50;;;;;;;19.87;100.00;100041.56;5014224;28;20224;-70
2023/05/28 05:40:17;;;;;;;1.50;1.40;;;;;;;19.86;100.00;100039.00;5039969;28;20660;-68
2023/05/28 05:42:45;;;;;;;1.60;1.50;;;;;;;19.86;100.00;100037.22;5053559;28;20203;-68
2023/05/28 05:45:12;;;;;;;1.10;1.10;;;;;;;19.89;100.00;100038.91;5052747;28;20729;-71
2023/05/28 05:47:38;;;;;;;1.40;1.40;;;;;;;20.12;100.00;100045.34;5034108;28;20199;-70
2023/05/28 05:50:06;;;;;;;1.60;1.50;;;;;;;20.25;100.00;100040.66;5053300;28;20242;-70
2023/05/28 05:52:33;;;;;;;1.92;1.83;;;;;;;20.24;100.00;100052.94;5048672;28;20200;-71
2023/05/28 05:55:00;;;;;;;1.70;1.60;;;;;;;20.43;100.00;100055.16;5038958;28;20204;-71
2023/05/28 05:57:27;;;;;;;1.35;1.30;;;;;;;20.63;100.00;100042.31;5043811;28;20219;-69
2023/05/28 05:59:55;;;;;;;1.58;1.48;;;;;;;20.89;100.00;100053.03;5052920;28;20203;-72
2023/05/28 06:02:22;;;;;;;1.73;1.63;;;;;;;21.05;100.00;100056.09;5046206;28;20235;-72
2023/05/28 06:04:49;;;;;;;1.20;1.20;;;;;;;20.70;100.00;100051.78;5052935;28;20321;-71
2023/05/28 06:07:16;;;;;;;1.27;1.27;;;;;;;20.50;100.00;100002.28;5053416;28;20333;-77
2023/05/28 06:09:45;;;;;;;1.40;1.40;;;;;;;20.96;100.00;100049.34;5049594;28;20622;-73
2023/05/28 06:12:12;;;;;;;1.35;1.35;;;;;;;20.92;100.00;100047.69;5042470;28;20701;-72
2023/05/28 06:14:39;;;;;;;1.15;1.15;;;;;;;21.25;100.00;100075.78;5052162;28;20607;-72
2023/05/28 06:17:09;;;;;;;1.45;1.45;;;;;;;21.47;100.00;100081.31;5052122;28;20281;-72
2023/05/28 06:19:36;;;;;;;1.30;1.30;;;;;;;21.51;100.00;100060.97;5052761;28;20203;-70
2023/05/28 06:22:03;;;;;;;1.30;1.30;;;;;;;21.55;100.00;100065.22;5052451;28;20390;-71
2023/05/28 06:24:31;;;;;;;1.20;1.20;;;;;;;21.56;100.00;100077.50;5052502;28;20269;-70
2023/05/28 06:26:58;;;;;;;1.13;1.13;;;;;;;21.69;100.00;100078.84;5029115;28;20655;-71
2023/05/28 06:29:25;;;;;;;1.10;1.10;;;;;;;21.79;100.00;100071.53;5043832;28;20211;-72
2023/05/28 06:31:52;;;;;;;1.30;1.30;;;;;;;21.56;100.00;100064.31;5052525;28;20204;-72
2023/05/28 06:34:20;;;;;;;1.23;1.23;;;;;;;21.67;100.00;100083.34;5052427;28;20211;-68
2023/05/28 06:36:46;;;;;;;1.20;1.20;;;;;;;21.53;100.00;100075.84;5052207;28;20285;-72
2023/05/28 06:39:13;;;;;;;1.25;1.25;;;;;;;21.27;100.00;100076.59;5051365;28;20254;-73
2023/05/28 06:41:40;;;;;;;1.10;1.10;;;;;;;21.44;100.00;100069.97;5051698;28;20204;-73
2023/05/28 06:44:07;;;;;;;1.17;1.17;;;;;;;21.60;100.00;100079.16;5050647;28;20210;-73
2023/05/28 06:46:34;;;;;;;1.27;1.27;;;;;;;21.62;100.00;100043.88;5052462;28;20732;-72
2023/05/28 06:49:00;;;;;;;1.30;1.30;;;;;;;21.80;100.00;100076.75;5052543;28;20208;-72
2023/05/28 06:51:28;;;;;;;1.30;1.30;;;;;;;22.01;100.00;100068.19;5051919;28;20269;-72
2023/05/28 06:53:55;;;;;;;1.27;1.27;;;;;;;21.88;100.00;100019.31;5051896;28;20200;-71
2023/05/28 06:56:23;;;;;;;1.40;1.40;;;;;;;22.33;100.00;100075.06;5051753;28;20206;-72
2023/05/28 06:58:50;;;;;;;1.50;1.40;;;;;;;22.89;100.00;100082.91;5051786;28;20292;-72
2023/05/28 07:01:17;;;;;;;1.33;1.33;;;;;;;22.58;100.00;100054.00;5051608;28;20219;-72
2023/05/28 07:03:44;;;;;;;1.35;1.35;;;;;;;22.39;100.00;100096.03;5051828;28;20332;-72
2023/05/28 07:06:11;;;;;;;1.48;1.38;;;;;;;22.16;100.00;100075.63;5051568;28;20206;-72
2023/05/28 07:08:41;;;;;;;1.42;1.42;;;;;;;21.52;100.00;100081.16;5051832;28;20226;-71
2023/05/28 07:11:08;;;;;;;1.80;1.70;;;;;;;21.23;100.00;100076.72;5051488;28;20200;-71
2023/05/28 07:13:35;;;;;;;1.30;1.30;;;;;;;21.20;100.00;100087.34;5051699;28;20230;-72
2023/05/28 07:16:01;;;;;;;1.75;1.65;;;;;;;20.91;100.00;100071.44;5051486;28;20199;-72
2023/05/28 07:18:28;;;;;;;1.23;1.23;;;;;;;21.33;100.00;100085.25;5051388;28;20298;-72
2023/05/28 07:20:55;;;;;;;1.40;1.40;;;;;;;21.58;100.00;100092.38;5051326;28;20286;-72
2023/05/28 07:23:22;;;;;;;1.13;1.13;;;;;;;21.69;100.00;100071.81;5051448;28;20214;-72
2023/05/28 07:25:50;;;;;;;1.42;1.40;;;;;;;21.43;100.00;100062.97;5051483;28;20298;-72
2023/05/28 07:28:17;;;;;;;1.45;1.40;;;;;;;21.62;100.00;100087.88;5051284;28;20215;-70
2023/05/28 07:30:44;;;;;;;1.23;1.23;;;;;;;21.01;100.00;99980.66;5051140;28;20199;-71
2023/05/28 07:33:11;;;;;;;1.30;1.30;;;;;;;21.54;100.00;100087.25;5051034;28;20196;-71
2023/05/28 07:35:37;;;;;;;2.15;2.05;;;;;;;21.67;100.00;100094.75;5050831;28;20207;-71
2023/05/28 07:38:04;;;;;;;1.33;1.33;;;;;;;21.59;100.00;100085.34;5051584;28;20231;-71
2023/05/28 07:40:31;;;;;;;1.30;1.30;;;;;;;22.07;100.00;100083.88;5051262;28;20235;-72
2023/05/28 07:42:59;;;;;;;1.20;1.20;;;;;;;22.29;100.00;100083.19;5016490;28;20206;-71
2023/05/28 07:45:26;;;;;;;1.20;1.20;;;;;;;22.36;100.00;100063.56;5051490;28;20204;-72
2023/05/28 07:47:53;;;;;;;2.45;1.88;;;;;;;22.61;100.00;100080.31;5051374;28;20628;-72
2023/05/28 07:50:19;;;;;;;1.30;1.30;;;;;;;22.99;100.00;100082.53;5050557;28;20207;-72
2023/05/28 07:52:47;;;;;;;1.40;1.40;;;;;;;23.08;100.00;100070.75;5051180;28;20207;-72
2023/05/28 07:55:14;;;;;;;1.30;1.30;;;;;;;23.28;100.00;100084.13;5050295;28;20651;-73
2023/05/28 07:57:40;;;;;;;1.17;1.17;;;;;;;23.32;100.00;100082.22;5048634;28;20223;-72
2023/05/28 08:00:13;;;;;;;1.20;1.20;;;;;;;23.20;100.00;100088.81;5043569;28;20214;-75
2023/05/28 08:02:40;;;;;;;1.17;1.17;;;;;;;22.94;100.00;100089.75;5035565;28;20195;-75
2023/05/28 08:05:08;;;;;;;1.30;1.30;;;;;;;23.11;100.00;100076.81;5048789;28;20227;-74
2023/05/28 08:07:34;;;;;;;1.40;1.40;;;;;;;23.29;100.00;100090.28;5050708;28;20282;-73
2023/05/28 08:10:01;;;;;;;1.40;1.40;;;;;;;22.87;100.00;100085.59;5049640;28;20207;-72
2023/05/28 08:12:28;;;;;;;1.30;1.30;;;;;;;22.84;100.00;100088.34;5050270;28;20656;-69
2023/05/28 08:14:55;;;;;;;1.40;1.40;;;;;;;22.59;100.00;100087.44;5049563;28;20601;-68
2023/05/28 08:17:23;;;;;;;1.52;1.52;;;;;;;22.67;100.00;100070.44;5050358;28;20226;-69
2023/05/28 08:19:50;;;;;;;1.30;1.30;;;;;;;22.46;100.00;100046.47;5050304;28;20199;-70
2023/05/28 08:22:17;;;;;;;1.30;1.30;;;;;;;22.43;100.00;100065.09;5050261;28;20238;-76
2023/05/28 08:24:44;;;;;;;1.75;1.65;;;;;;;22.14;100.00;100016.72;5014429;28;20214;-85
2023/05/28 08:27:11;;;;;;;2.30;2.20;;;;;;;22.14;100.00;100079.25;5014810;28;20207;-74
2023/05/28 08:29:37;;;;;;;1.40;1.40;;;;;;;22.04;100.00;100023.25;5050580;28;20195;-74
2023/05/28 08:32:05;;;;;;;1.20;1.20;;;;;;;22.37;100.00;100073.19;5050292;28;20207;-72
2023/05/28 08:34:36;;;;;;;1.17;1.17;;;;;;;21.97;100.00;100071.88;5014390;28;20191;-72
2023/05/28 08:37:06;;;;;;;1.20;1.20;;;;;;;22.50;100.00;100067.47;5014552;28;20210;-74
2023/05/28 08:39:33;;;;;;;1.30;1.30;;;;;;;22.08;100.00;100038.03;5053765;28;20296;-73
2023/05/28 08:42:00;;;;;;;1.20;1.20;;;;;;;22.23;100.00;100068.38;5058771;28;20665;-72
2023/05/28 08:44:26;;;;;;;1.33;1.33;;;;;;;22.36;100.00;100063.56;5049615;28;20582;-76
2023/05/28 08:46:55;;;;;;;1.30;1.30;;;;;;;22.54;100.00;100078.81;5049406;28;20222;-72
2023/05/28 08:49:27;;;;;;;1.00;1.00;;;;;;;22.89;100.00;100073.19;5049915;28;20210;-73
2023/05/28 08:51:58;;;;;;;1.30;1.30;;;;;;;22.61;100.00;100077.69;5016244;28;20610;-71
2023/05/28 08:54:25;;;;;;;1.40;1.40;;;;;;;22.98;100.00;100080.78;5049055;28;20199;-73
2023/05/28 08:56:53;;;;;;;1.55;1.50;;;;;;;22.68;100.00;100073.94;5050651;28;20272;-75
2023/05/28 08:59:21;;;;;;;1.25;1.25;;;;;;;22.45;100.00;100057.97;5049470;28;20226;-74
2023/05/28 09:01:48;;;;;;;1.17;1.17;;;;;;;22.75;100.00;100078.09;5050091;28;20214;-75
2023/05/28 09:04:15;;;;;;;1.20;1.20;;;;;;;22.54;100.00;100076.16;5049253;28;20654;-75
2023/05/28 09:06:41;;;;;;;1.30;1.30;;;;;;;23.30;100.00;100078.75;5050657;28;20261;-79
2023/05/28 09:09:10;;;;;;;1.00;1.00;;;;;;;23.41;100.00;100064.25;5053812;28;20587;-74
2023/05/28 09:11:37;;;;;;;1.02;1.02;;;;;;;23.43;100.00;100061.56;5054300;28;20204;-75
2023/05/28 09:14:11;;;;;;;1.25;1.25;;;;;;;23.45;100.00;100075.56;5053175;28;20253;-77
2023/05/28 09:16:41;;;;;;;1.00;1.00;;;;;;;23.29;100.00;100077.91;5054065;28;20235;-72
2023/05/28 09:19:08;;;;;;;1.20;1.20;;;;;;;23.38;100.00;100087.28;5019218;28;20758;-70
2023/05/28 09:21:36;;;;;;;1.30;1.30;;;;;;;23.76;100.00;100073.47;5053565;28;20210;-78
2023/05/28 09:24:03;;;;;;;1.70;1.60;;;;;;;23.83;100.00;100074.13;5053488;28;20205;-71
2023/05/28 09:26:32;;;;;;;1.20;1.20;;;;;;;24.02;100.00;100030.94;5054562;28;20200;-71
2023/05/28 09:28:59;;;;;;;1.20;1.20;;;;;;;24.04;100.00;100060.84;5054282;28;20211;-69
2023/05/28 09:31:29;;;;;;;1.17;1.17;;;;;;;24.18;100.00;100074.47;5053626;28;20211;-71
2023/05/28 09:33:56;;;;;;;1.15;1.15;;;;;;;24.41;100.00;100076.16;5052919;28;20283;-73
2023/05/28 09:36:23;;;;;;;1.20;1.20;;;;;;;23.92;100.00;100071.97;5045608;28;20199;-74
2023/05/28 09:38:49;;;;;;;1.20;1.20;;;;;;;23.80;100.00;100035.34;5038886;28;20668;-72
2023/05/28 09:41:20;;;;;;;1.83;1.73;;;;;;;24.53;100.00;100056.22;5042223;28;20623;-74
2023/05/28 09:43:58;;;;;;;1.17;1.17;;;;;;;24.88;100.00;100018.47;5044301;28;20731;-73
2023/05/28 09:46:28;;;;;;;1.30;1.30;;;;;;;24.88;97.12;100052.94;5042424;28;20665;-75
2023/05/28 09:48:55;;;;;;;1.10;1.10;;;;;;;24.22;100.00;100050.50;5017153;28;20295;-72
2023/05/28 09:51:25;;;;;;;1.40;1.40;;;;;;;24.39;100.00;100019.72;5058746;28;20199;-72
2023/05/28 09:53:56;;;;;;;1.20;1.20;;;;;;;24.92;100.00;100064.28;5049269;28;20257;-71
2023/05/28 09:56:24;;;;;;;1.10;1.10;;;;;;;24.75;100.00;100048.22;5053125;28;20294;-71
2023/05/28 09:58:56;;;;;;;1.30;1.30;;;;;;;24.85;98.61;100054.88;5052537;28;20223;-74
2023/05/28 10:01:25;;;;;;;2.63;2.50;;;;;;;24.90;97.80;99973.31;5053592;28;20247;-73
2023/05/28 10:04:01;;;;;;;1.10;1.10;;;;;;;25.85;93.28;100044.94;5055211;28;20226;-73
2023/05/28 10:06:28;;;;;;;1.20;1.20;;;;;;;25.55;92.90;100037.50;5052407;28;20211;-72
2023/05/28 10:08:56;;;;;;;1.10;1.10;;;;;;;25.29;95.30;100034.31;5052838;28;20585;-72
2023/05/28 10:11:25;;;;;;;1.10;1.10;;;;;;;25.75;89.28;100038.34;5041687;28;20607;-73
2023/05/28 10:13:55;;;;;;;1.25;1.25;;;;;;;26.22;88.80;100033.41;5052104;28;20199;-72
2023/05/28 10:16:22;;;;;;;1.13;1.13;;;;;;;26.51;86.67;100031.00;5052561;28;20199;-75
2023/05/28 10:18:50;;;;;;;1.23;1.23;;;;;;;26.56;86.56;100025.44;5051981;28;20219;-74
2023/05/28 10:21:16;;;;;;;1.10;1.10;;;;;;;26.17;88.33;100022.97;5052682;28;20587;-67
2023/05/28 10:23:45;;;;;;;1.30;1.30;;;;;;;26.12;88.32;100003.72;5051441;28;20568;-69
2023/05/28 10:26:12;;;;;;;1.20;1.20;;;;;;;25.94;87.79;100026.75;5052692;28;20196;-71
2023/05/28 10:28:39;;;;;;;1.30;1.30;;;;;;;25.12;99.81;100017.34;5052613;28;20200;-73
2023/05/28 10:31:10;;;;;;;1.40;1.40;;;;;;;24.91;100.00;99993.56;5052458;28;20210;-71
2023/05/28 10:33:38;;;;;;;1.30;1.30;;;;;;;25.44;97.95;100022.97;5052541;28;20233;-69
2023/05/28 10:36:11;;;;;;;1.25;1.25;;;;;;;24.92;95.58;100012.09;5052073;28;20199;-69
2023/05/28 10:38:44;;;;;;;1.15;1.15;;;;;;;24.15;100.00;100016.28;5047049;28;20627;-77
2023/05/28 10:41:11;;;;;;;1.10;1.10;;;;;;;23.70;100.00;99996.94;5052182;28;20231;-72
2023/05/28 10:43:41;;;;;;;1.10;1.10;;;;;;;24.04;100.00;100018.47;5051909;28;20195;-71
2023/05/28 10:46:15;;;;;;;1.10;1.10;;;;;;;23.04;100.00;100009.19;5052103;28;20243;-70
2023/05/28 10:48:43;;;;;;;1.20;1.20;;;;;;;22.76;100.00;99984.63;5052206;28;20211;-71
2023/05/28 10:51:10;;;;;;;1.00;1.00;;;;;;;22.80;100.00;99957.16;5051561;28;20191;-72
2023/05/28 10:53:38;;;;;;;0.90;0.90;;;;;;;22.86;100.00;99964.91;5040622;28;20293;-72
2023/05/28 10:56:05;;;;;;;0.90;0.90;;;;;;;23.01;100.00;99958.19;5049022;28;20671;-72
2023/05/28 10:58:35;;;;;;;1.10;1.10;;;;;;;23.50;100.00;99952.75;5051219;28;20219;-71
2023/05/28 11:01:05;;;;;;;1.13;1.13;;;;;;;23.89;100.00;99952.91;5050110;28;20285;-72
2023/05/28 11:03:44;;;;;;;1.70;1.60;;;;;;;24.34;100.00;99978.41;5019273;28;20663;-69
2023/05/28 11:06:12;;;;;;;0.98;0.98;;;;;;;24.61;100.00;99982.53;5053504;28;20214;-72
2023/05/28 11:08:43;;;;;;;1.00;1.00;;;;;;;24.97;100.00;99964.97;5050300;28;20215;-71
2023/05/28 11:11:12;;;;;;;1.00;1.00;;;;;;;25.55;100.00;99978.22;5042996;28;20302;-71
2023/05/28 11:13:39;;;;;;;1.15;1.15;;;;;;;25.86;100.00;99980.25;5050594;28;20720;-70
2023/05/28 11:16:08;;;;;;;1.35;1.35;;;;;;;25.72;100.00;99967.63;5017028;28;20207;-74
2023/05/28 11:18:34;;;;;;;0.98;0.98;;;;;;;25.54;100.00;99897.69;5016739;28;20226;-73
2023/05/28 11:21:07;;;;;;;1.00;1.00;;;;;;;26.12;96.59;99967.38;5052371;28;20585;-72
2023/05/28 11:23:34;;;;;;;1.08;1.08;;;;;;;25.84;98.76;99968.81;5011415;28;20608;-72